createdAt,value
2019-05-14T00:01:46.450Z,40.41
2019-05-14T00:04:51.464Z,40.27
2019-05-14T00:07:56.497Z,40.62
2019-05-14T00:11:01.819Z,40.78
2019-05-14T00:14:06.622Z,41.39
2019-05-14T00:17:11.577Z,41.54
2019-05-14T00:20:17.545Z,41.73
2019-05-14T00:23:22.298Z,42.70
2019-05-14T00:26:27.047Z,43.32
2019-05-14T00:29:32.241Z,43.35
2019-05-14T00:32:36.969Z,43.67
2019-05-14T00:35:42.194Z,44.20
2019-05-14T00:38:47.225Z,44.10
2019-05-14T00:41:52.374Z,44.68
2019-05-14T00:44:58.011Z,45.26
2019-05-14T00:48:03.229Z,45.80
2019-05-14T00:51:07.988Z,48.53
2019-05-14T00:54:13.059Z,51.76
2019-05-14T00:57:17.874Z,53.58
2019-05-14T01:00:22.836Z,55.15
2019-05-14T01:03:28.078Z,55.15
2019-05-14T01:06:33.245Z,56.94
2019-05-14T01:09:38.067Z,57.70
2019-05-14T01:12:43.217Z,58.51
2019-05-14T01:15:48.000Z,59.22
2019-05-14T01:18:53.021Z,59.37
2019-05-14T01:21:58.075Z,59.84
2019-05-14T01:25:02.861Z,59.27
2019-05-14T01:28:08.276Z,59.13
2019-05-14T01:31:14.761Z,59.17
2019-05-14T01:34:21.634Z,59.01
2019-05-14T01:37:26.567Z,59.71
2019-05-14T01:40:31.825Z,60.10
2019-05-14T01:43:36.641Z,60.02
2019-05-14T01:46:41.989Z,59.75
2019-05-14T01:49:47.264Z,60.47
2019-05-14T01:52:52.205Z,60.79
2019-05-14T01:55:56.914Z,60.79
2019-05-14T01:59:01.910Z,60.98
2019-05-14T02:02:06.826Z,61.13
2019-05-14T02:05:12.808Z,59.08
2019-05-14T02:08:17.993Z,60.33
2019-05-14T02:11:23.071Z,59.03
2019-05-14T02:14:31.302Z,59.24
2019-05-14T02:17:36.372Z,60.66
2019-05-14T02:20:41.567Z,60.70
2019-05-14T02:23:47.623Z,61.03
2019-05-14T02:26:52.663Z,61.57
2019-05-14T02:30:01.476Z,61.72
2019-05-14T02:33:05.456Z,62.07
2019-05-14T02:36:10.628Z,62.64
2019-05-14T02:39:19.428Z,61.58
2019-05-14T02:42:23.296Z,61.34
2019-05-14T02:45:30.465Z,62.83
2019-05-14T02:48:34.819Z,62.49
2019-05-14T02:51:39.521Z,61.52
2019-05-14T02:54:44.276Z,63.59
2019-05-14T02:57:50.153Z,64.11
2019-05-14T03:00:55.225Z,62.92
2019-05-14T03:04:01.136Z,64.42
2019-05-14T03:07:05.866Z,65.87
2019-05-14T03:10:10.956Z,65.81
2019-05-14T03:13:16.199Z,66.44
2019-05-14T03:16:30.967Z,66.92
2019-05-14T03:19:29.946Z,67.21
2019-05-14T03:22:46.470Z,67.84
2019-05-14T03:25:42.015Z,67.44
2019-05-14T03:28:49.735Z,67.11
2019-05-14T03:31:53.680Z,67.00
2019-05-14T03:35:03.719Z,67.30
2019-05-14T03:38:09.224Z,66.87
2019-05-14T03:41:14.309Z,66.65
2019-05-14T03:44:20.064Z,66.30
2019-05-14T03:47:25.429Z,66.39
2019-05-14T03:50:30.615Z,64.72
2019-05-14T03:53:52.310Z,66.06
2019-05-14T03:56:42.516Z,65.89
2019-05-14T03:59:49.916Z,66.11
2019-05-14T04:02:53.910Z,65.69
2019-05-14T04:06:00.293Z,65.41
2019-05-14T04:09:09.691Z,65.88
2019-05-14T04:12:14.961Z,64.68
2019-05-14T04:15:23.650Z,65.83
2019-05-14T04:18:30.921Z,65.37
2019-05-14T04:21:40.066Z,67.12
2019-05-14T04:24:49.376Z,66.76
2019-05-14T04:27:54.201Z,68.79
2019-05-14T04:30:59.845Z,65.90
2019-05-14T04:34:05.082Z,65.49
2019-05-14T04:37:12.557Z,64.55
2019-05-14T04:40:19.070Z,63.53
2019-05-14T04:43:24.703Z,65.46
2019-05-14T04:46:30.437Z,65.83
2019-05-14T04:49:35.648Z,65.08
2019-05-14T04:52:40.887Z,63.94
2019-05-14T04:55:49.227Z,63.04
2019-05-14T04:58:52.554Z,62.46
2019-05-14T05:01:59.941Z,62.88
2019-05-14T05:05:04.249Z,63.35
2019-05-14T05:08:09.197Z,61.04
2019-05-14T05:11:17.116Z,61.78
2019-05-14T05:14:23.724Z,60.36
2019-05-14T05:17:42.825Z,60.44
2019-05-14T05:20:35.445Z,59.60
2019-05-14T05:23:40.197Z,60.09
2019-05-14T05:26:44.964Z,57.98
2019-05-14T05:29:49.957Z,58.78
2019-05-14T05:32:54.740Z,60.15
2019-05-14T05:35:59.750Z,58.86
2019-05-14T05:39:08.563Z,57.98
2019-05-14T05:42:13.566Z,59.04
2019-05-14T05:45:19.013Z,59.17
2019-05-14T05:48:24.102Z,58.76
2019-05-14T05:51:29.041Z,57.81
2019-05-14T05:54:34.305Z,57.44
2019-05-14T05:57:39.592Z,57.48
2019-05-14T06:00:44.536Z,56.57
2019-05-14T06:03:49.559Z,55.64
2019-05-14T06:06:54.806Z,54.40
2019-05-14T06:09:59.895Z,54.41
2019-05-14T06:13:05.122Z,53.96
2019-05-14T06:16:09.878Z,54.14
2019-05-14T06:19:14.740Z,53.75
2019-05-14T06:22:19.499Z,47.34
2019-05-14T06:25:24.283Z,52.05
2019-05-14T06:28:33.316Z,48.63
2019-05-14T06:31:38.675Z,45.70
2019-05-14T06:34:43.363Z,44.88
2019-05-14T06:37:49.008Z,45.67
2019-05-14T06:40:54.173Z,44.43
2019-05-14T06:43:59.268Z,43.77
2019-05-14T06:47:04.318Z,43.38
2019-05-14T06:50:09.453Z,43.61
2019-05-14T06:53:14.256Z,43.03
2019-05-14T06:56:21.773Z,43.56
2019-05-14T06:59:28.578Z,43.24
2019-05-14T07:02:32.937Z,42.23
2019-05-14T07:05:38.985Z,42.38
2019-05-14T07:08:44.378Z,43.05
2019-05-14T07:11:49.591Z,40.86
2019-05-14T07:14:54.682Z,41.42
2019-05-14T07:17:59.505Z,41.63
2019-05-14T07:21:08.054Z,41.66
2019-05-14T07:24:12.119Z,41.44
2019-05-14T07:27:19.106Z,40.65
2019-05-14T07:30:23.688Z,40.50
2019-05-14T07:33:29.410Z,40.62
2019-05-14T07:36:34.505Z,40.26
2019-05-14T07:39:39.321Z,41.08
2019-05-14T07:42:44.465Z,40.67
2019-05-14T07:45:50.212Z,40.47
2019-05-14T07:49:05.491Z,38.15
2019-05-14T07:52:01.875Z,38.54
2019-05-14T07:55:09.103Z,38.98
2019-05-14T07:58:14.671Z,39.48
2019-05-14T08:01:19.492Z,38.80
2019-05-14T08:04:24.346Z,38.16
2019-05-14T08:07:29.484Z,37.59
2019-05-14T08:10:34.353Z,37.31
2019-05-14T08:13:40.987Z,36.04
2019-05-14T08:16:45.598Z,37.31
2019-05-14T08:19:50.362Z,36.10
2019-05-14T08:22:55.441Z,35.85
2019-05-14T08:26:03.786Z,34.83
2019-05-14T08:29:08.721Z,35.80
2019-05-14T08:32:13.650Z,36.04
2019-05-14T08:35:18.635Z,35.40
2019-05-14T08:38:24.509Z,34.49
2019-05-14T08:41:29.916Z,35.55
2019-05-14T08:44:35.046Z,34.97
2019-05-14T08:47:39.794Z,34.73
2019-05-14T08:50:45.057Z,33.97
2019-05-14T08:53:50.716Z,34.64
2019-05-14T08:56:58.217Z,33.31
2019-05-14T09:00:02.773Z,34.99
2019-05-14T09:03:08.467Z,33.50
2019-05-14T09:06:13.431Z,32.55
2019-05-14T09:09:22.113Z,31.65
2019-05-14T09:12:28.020Z,30.88
2019-05-14T09:15:32.700Z,31.55
2019-05-14T09:18:38.685Z,31.45
2019-05-14T09:21:43.685Z,31.24
2019-05-14T09:24:49.197Z,31.55
2019-05-14T09:27:54.393Z,31.47
2019-05-14T09:30:59.839Z,31.49
2019-05-14T09:34:05.697Z,31.72
2019-05-14T09:37:11.456Z,31.94
2019-05-14T09:40:16.420Z,31.58
2019-05-14T09:43:22.282Z,33.08
2019-05-14T09:46:28.906Z,31.39
2019-05-14T09:49:33.993Z,31.92
2019-05-14T09:52:39.453Z,31.37
2019-05-14T09:55:44.279Z,31.58
2019-05-14T09:58:49.727Z,31.49
2019-05-14T10:01:54.855Z,30.88
2019-05-14T10:04:59.950Z,31.38
2019-05-14T10:08:04.826Z,31.77
2019-05-14T10:11:09.788Z,30.92
2019-05-14T10:14:14.559Z,29.35
2019-05-14T10:17:19.592Z,30.55
2019-05-14T10:20:39.503Z,30.79
2019-05-14T10:23:32.245Z,29.46
2019-05-14T10:26:39.334Z,27.83
2019-05-14T10:29:43.992Z,27.83
2019-05-14T10:32:49.362Z,28.10
2019-05-14T10:35:54.273Z,26.83
2019-05-14T10:38:59.047Z,27.85
2019-05-14T10:42:04.145Z,27.73
2019-05-14T10:45:12.930Z,27.53
2019-05-14T10:48:18.452Z,27.38
2019-05-14T10:51:22.958Z,27.61
2019-05-14T10:54:29.234Z,26.98
2019-05-14T10:57:34.261Z,27.10
2019-05-14T11:00:41.964Z,25.53
2019-05-14T11:03:48.257Z,25.21
2019-05-14T11:06:52.367Z,25.89
2019-05-14T11:09:57.492Z,26.51
2019-05-14T11:13:02.254Z,26.79
2019-05-14T11:16:08.575Z,27.69
2019-05-14T11:19:13.843Z,27.38
2019-05-14T11:22:19.004Z,27.38
2019-05-14T11:25:23.991Z,28.81
2019-05-14T11:28:29.195Z,28.81
2019-05-14T11:31:34.531Z,28.83
2019-05-14T11:34:39.383Z,29.42
2019-05-14T11:37:44.181Z,28.46
2019-05-14T11:40:49.713Z,25.33
2019-05-14T11:43:55.115Z,25.34
2019-05-14T11:47:02.538Z,25.35
2019-05-14T11:50:09.478Z,25.35
2019-05-14T11:53:13.968Z,24.67
2019-05-14T11:56:19.518Z,25.09
2019-05-14T11:59:24.425Z,25.60
2019-05-14T12:02:29.524Z,25.82
2019-05-14T12:05:34.258Z,25.71
2019-05-14T12:08:41.777Z,24.48
2019-05-14T12:11:46.479Z,25.74
2019-05-14T12:14:51.249Z,27.36
2019-05-14T12:17:59.290Z,27.36
2019-05-14T12:21:02.926Z,26.73
2019-05-14T12:24:13.429Z,26.73
2019-05-14T12:27:14.882Z,25.50
2019-05-14T12:30:21.135Z,25.26
2019-05-14T12:33:29.489Z,25.26
2019-05-14T12:36:33.485Z,26.37
2019-05-14T12:39:38.857Z,25.85
2019-05-14T12:42:43.663Z,26.04
2019-05-14T12:45:48.471Z,26.60
2019-05-14T12:48:53.259Z,26.03
2019-05-14T12:51:59.034Z,25.17
2019-05-14T12:55:04.926Z,25.22
2019-05-14T12:58:09.692Z,24.12
2019-05-14T13:01:14.687Z,24.96
2019-05-14T13:04:20.217Z,25.76
2019-05-14T13:07:25.696Z,25.79
2019-05-14T13:10:30.520Z,25.05
2019-05-14T13:13:35.251Z,25.21
2019-05-14T13:16:40.917Z,26.07
2019-05-14T13:19:45.650Z,25.76
2019-05-14T13:22:50.757Z,26.08
2019-05-14T13:25:58.423Z,25.59
2019-05-14T13:29:02.568Z,26.42
2019-05-14T13:32:12.023Z,26.64
2019-05-14T13:35:14.509Z,25.72
2019-05-14T13:38:20.501Z,25.72
2019-05-14T13:41:25.245Z,25.07
2019-05-14T13:44:30.313Z,25.01
2019-05-14T13:47:35.387Z,23.92
2019-05-14T13:50:40.573Z,25.01
2019-05-14T13:53:45.668Z,25.61
2019-05-14T13:56:50.749Z,24.70
2019-05-14T13:59:55.551Z,24.19
2019-05-14T14:03:00.372Z,25.10
2019-05-14T14:06:05.343Z,24.02
2019-05-14T14:09:12.376Z,23.34
2019-05-14T14:12:16.801Z,23.41
2019-05-14T14:15:22.027Z,23.30
2019-05-14T14:18:29.200Z,23.69
2019-05-14T14:21:33.788Z,23.84
2019-05-14T14:24:38.989Z,23.30
2019-05-14T14:27:43.832Z,24.19
2019-05-14T14:30:49.315Z,25.19
2019-05-14T14:33:54.188Z,25.07
2019-05-14T14:36:59.443Z,25.08
2019-05-14T14:40:04.891Z,25.44
2019-05-14T14:43:10.285Z,25.03
2019-05-14T14:46:15.442Z,23.98
2019-05-14T14:49:20.231Z,24.21
2019-05-14T14:52:29.151Z,23.85
2019-05-14T14:55:33.255Z,22.99
2019-05-14T14:58:39.390Z,23.78
2019-05-14T15:01:44.480Z,23.95
2019-05-14T15:04:50.079Z,25.31
2019-05-14T15:07:55.994Z,25.94
2019-05-14T15:11:00.744Z,26.36
2019-05-14T15:14:08.300Z,26.15
2019-05-14T15:17:12.204Z,26.01
2019-05-14T15:20:19.575Z,25.41
2019-05-14T15:23:24.829Z,25.61
2019-05-14T15:26:29.576Z,26.26
2019-05-14T15:29:35.264Z,26.18
2019-05-14T15:32:40.165Z,26.44
2019-05-14T15:35:45.007Z,25.59
2019-05-14T15:38:50.107Z,25.08
2019-05-14T15:41:54.900Z,26.01
2019-05-14T15:45:00.158Z,26.64
2019-05-14T15:48:05.473Z,26.43
2019-05-14T15:51:14.798Z,26.43
2019-05-14T15:54:36.171Z,26.80
2019-05-14T15:57:24.258Z,27.54
2019-05-14T16:00:29.441Z,27.72
2019-05-14T16:03:34.318Z,27.05
2019-05-14T16:06:39.145Z,27.94
2019-05-14T16:09:44.223Z,27.94
2019-05-14T16:12:49.810Z,27.44
2019-05-14T16:15:55.033Z,26.90
2019-05-14T16:18:59.866Z,26.90
2019-05-14T16:22:04.662Z,27.45
2019-05-14T16:25:10.074Z,27.77
2019-05-14T16:28:15.244Z,27.63
2019-05-14T16:31:20.127Z,27.15
2019-05-14T16:34:26.000Z,27.15
2019-05-14T16:37:31.108Z,25.60
2019-05-14T16:40:39.260Z,25.60
2019-05-14T16:43:43.145Z,25.31
2019-05-14T16:46:48.178Z,25.56
2019-05-14T16:49:53.037Z,26.47
2019-05-14T16:52:58.977Z,28.03
2019-05-14T16:56:04.225Z,28.03
2019-05-14T16:59:09.164Z,28.27
2019-05-14T17:02:13.974Z,28.90
2019-05-14T17:05:19.075Z,29.00
2019-05-14T17:08:24.051Z,28.77
2019-05-14T17:11:28.929Z,29.13
2019-05-14T17:14:34.064Z,29.37
2019-05-14T17:17:38.909Z,29.43
2019-05-14T17:20:43.915Z,29.83
2019-05-14T17:23:49.096Z,29.84
2019-05-14T17:26:53.913Z,29.74
2019-05-14T17:29:59.022Z,28.97
2019-05-14T17:33:03.951Z,29.04
2019-05-14T17:36:09.535Z,29.15
2019-05-14T17:39:14.940Z,29.31
2019-05-14T17:42:20.014Z,29.42
2019-05-14T17:45:24.901Z,29.18
2019-05-14T17:48:29.682Z,29.41
2019-05-14T17:51:34.858Z,29.99
2019-05-14T17:54:41.960Z,29.76
2019-05-14T17:57:50.305Z,30.08
2019-05-14T18:00:54.997Z,30.30
2019-05-14T18:04:01.391Z,30.16
2019-05-14T18:07:08.514Z,30.39
2019-05-14T18:10:13.459Z,30.58
2019-05-14T18:13:19.026Z,30.44
2019-05-14T18:16:24.073Z,31.04
2019-05-14T18:19:29.197Z,31.45
2019-05-14T18:22:34.669Z,31.56
2019-05-14T18:25:40.313Z,31.75
2019-05-14T18:28:45.410Z,31.59
2019-05-14T18:31:53.807Z,31.98
2019-05-14T18:34:58.120Z,32.34
2019-05-14T18:38:03.325Z,32.90
2019-05-14T18:41:08.625Z,32.71
2019-05-14T18:44:13.586Z,32.52
2019-05-14T18:47:20.101Z,33.31
2019-05-14T18:50:25.108Z,33.08
2019-05-14T18:53:30.020Z,33.05
2019-05-14T18:56:38.403Z,33.24
2019-05-14T18:59:43.029Z,33.44
2019-05-14T19:02:48.542Z,33.87
2019-05-14T19:05:53.712Z,34.06
2019-05-14T19:08:58.823Z,33.88
2019-05-14T19:12:03.988Z,34.08
2019-05-14T19:15:09.457Z,34.06
2019-05-14T19:18:14.584Z,34.28
2019-05-14T19:21:19.411Z,34.55
2019-05-14T19:24:24.212Z,34.95
2019-05-14T19:27:29.458Z,34.84
2019-05-14T19:30:34.394Z,35.13
2019-05-14T19:33:39.308Z,35.48
2019-05-14T19:36:44.617Z,35.76
2019-05-14T19:39:49.857Z,35.56
2019-05-14T19:42:55.422Z,35.80
2019-05-14T19:46:00.441Z,35.91
2019-05-14T19:49:05.379Z,35.98
2019-05-14T19:52:10.168Z,36.48
2019-05-14T19:55:15.187Z,36.89
2019-05-14T19:58:20.481Z,36.32
2019-05-14T20:01:25.717Z,36.90
2019-05-14T20:04:30.571Z,36.92
2019-05-14T20:07:35.658Z,37.00
2019-05-14T20:10:40.523Z,37.30
2019-05-14T20:13:45.638Z,37.42
2019-05-14T20:16:51.020Z,37.86
2019-05-14T20:19:57.970Z,38.15
2019-05-14T20:23:02.621Z,38.57
2019-05-14T20:26:08.286Z,38.55
2019-05-14T20:29:13.524Z,38.88
2019-05-14T20:32:19.391Z,39.05
2019-05-14T20:35:31.801Z,39.20
2019-05-14T20:38:30.875Z,39.30
2019-05-14T20:41:38.564Z,39.38
2019-05-14T20:44:42.779Z,39.91
2019-05-14T20:47:48.206Z,39.82
2019-05-14T20:50:54.632Z,40.31
2019-05-14T20:53:59.356Z,40.76
2019-05-14T20:57:04.154Z,40.92
2019-05-14T21:00:11.561Z,41.59
2019-05-14T21:03:18.665Z,41.56
2019-05-14T21:06:23.413Z,42.51
2019-05-14T21:09:28.969Z,42.74
2019-05-14T21:12:33.794Z,42.25
2019-05-14T21:15:39.379Z,42.31
2019-05-14T21:18:44.347Z,42.78
2019-05-14T21:21:49.578Z,43.21
2019-05-14T21:24:54.478Z,43.29
2019-05-14T21:27:59.361Z,43.53
2019-05-14T21:31:04.761Z,44.04
2019-05-14T21:34:10.114Z,43.96
2019-05-14T21:37:15.180Z,44.36
2019-05-14T21:40:20.131Z,44.19
2019-05-14T21:43:25.273Z,44.06
2019-05-14T21:46:31.760Z,44.55
2019-05-14T21:49:38.806Z,44.37
2019-05-14T21:52:43.161Z,45.46
2019-05-14T21:55:48.225Z,45.20
2019-05-14T21:58:53.291Z,44.92
2019-05-14T22:02:01.272Z,46.26
2019-05-14T22:05:09.384Z,46.35
2019-05-14T22:08:13.374Z,47.34
2019-05-14T22:11:18.918Z,48.55
2019-05-14T22:14:23.802Z,49.36
2019-05-14T22:17:28.643Z,50.47
2019-05-14T22:20:34.597Z,50.43
2019-05-14T22:23:39.625Z,51.15
2019-05-14T22:26:44.390Z,50.85
2019-05-14T22:29:50.349Z,50.46
2019-05-14T22:32:55.118Z,51.44
2019-05-14T22:36:00.309Z,52.06
2019-05-14T22:39:06.433Z,51.28
2019-05-14T22:42:11.249Z,52.40
2019-05-14T22:45:18.524Z,53.01
2019-05-14T22:48:22.978Z,52.87
2019-05-14T22:51:28.205Z,54.06
2019-05-14T22:54:32.980Z,53.52
2019-05-14T22:57:39.239Z,55.10
2019-05-14T23:00:48.092Z,55.47
2019-05-14T23:03:51.284Z,54.49
2019-05-14T23:06:58.517Z,54.13
2019-05-14T23:10:02.907Z,55.26
2019-05-14T23:13:09.335Z,55.34
2019-05-14T23:16:14.442Z,53.82
2019-05-14T23:19:19.539Z,55.31
2019-05-14T23:22:24.590Z,55.59
2019-05-14T23:25:29.626Z,55.80
2019-05-14T23:28:43.754Z,56.16
2019-05-14T23:31:41.193Z,56.52
2019-05-14T23:34:48.705Z,54.93
2019-05-14T23:37:53.681Z,55.85
2019-05-14T23:40:59.765Z,57.56
2019-05-14T23:44:04.620Z,58.29
2019-05-14T23:47:09.421Z,59.08
2019-05-14T23:50:14.397Z,57.06
2019-05-14T23:53:19.419Z,57.88
2019-05-14T23:56:24.180Z,58.65
2019-05-14T23:59:29.425Z,59.08
